Chestnut Mound, Tennessee
Current Conditions -  °F | °C
As of 11:55 PM on Saturday 22 Nov 2014 (Local Time) from KSRB Reporting Station
Broken Clouds Broken Clouds  
Wind Chill: 12°   Ceiling: 4900
Heat Index: 12°   Visibility: 10mi
Dew Point:   Wind: 12mph
Humidity: 51%   Direction: 190°S
Pressure: 30.08"   Gusts: NA
Location:  36.2°N, 85.83°W
Report Text: KSRB 230555Z AUTO 19010KT 10SM BKN049 12/02 A3008 RMK
Loading
Personal Weather Stations






























Interactive Weather Map New forecast layout! Learn more

10-Day Weather Forecast

Advertisements
Track Severe Weather on mobile